This is the latest recevied weather packets stored in our database for station/object KB1RMA-13. If no packets are shown the sender has not sent any weather packets the latest 1 day(s).
| Time | Temp. | Humidity | Pressure | Rain* | Wind** | Luminosity | Snow |
|---|---|---|---|---|---|---|---|
| 1778027937 | 20° C | 56% | 1007.1 hPa | 0 mm | - | 0 W/m² | - |
| 1778027633 | 20.56° C | 56% | 1006.9 hPa | 0 mm | - | 0 W/m² | - |
| 1778027026 | 20.56° C | 55% | 1006.8 hPa | 0 mm | - | 0 W/m² | - |
| 1778026419 | 21.11° C | 54% | 1006.4 hPa | 0 mm | - | 0 W/m² | - |
| 1778026116 | 21.11° C | 53% | 1006.7 hPa | 0 mm | - | 0 W/m² | - |
| 1778025814 | 21.67° C | 52% | 1006.2 hPa | 0 mm | - | 0 W/m² | - |
| 1778025208 | 21.67° C | 52% | 1006.2 hPa | 0 mm | - | 1 W/m² | - |
| 1778020665 | 23.89° C | 47% | 1005.2 hPa | 0 mm | - | 102 W/m² | - |
| 1778019451 | 23.33° C | 49% | 1004.9 hPa | 0 mm | - | 110 W/m² | - |
| 1778016120 | 23.33° C | 52% | 1004.7 hPa | 0 mm | - | 235 W/m² | - |
| 1778015514 | 23.89° C | 48% | 1004.4 hPa | 0 mm | - | 287 W/m² | - |
| 1778014303 | 25° C | 47% | 1004.2 hPa | 0 mm | - | 403 W/m² | - |
| 1778013091 | 26.11° C | 45% | 1004.4 hPa | 0 mm | - | 151 W/m² | - |
| 1778011877 | 26.11° C | 44% | 1004.2 hPa | 0 mm | - | 529 W/m² | - |
| 1778010058 | 26.11° C | 46% | 1004.8 hPa | 0 mm | - | 609 W/m² | - |
| 1778005518 | 26.11° C | 48% | 1005.8 hPa | 0 mm | - | 815 W/m² | - |
| 1778004609 | 27.22° C | 44% | 1006.1 hPa | 0 mm | - | 839 W/m² | - |
| 1778003697 | 26.67° C | 47% | 1006.1 hPa | 0 mm | - | 844 W/m² | - |
| 1778002484 | 27.22° C | 40% | 1006.6 hPa | 0 mm | - | 867 W/m² | - |
| 1778002181 | 27.22° C | 43% | 1006.5 hPa | 0 mm | - | 886 W/m² | - |
| 1778000669 | 26.67° C | 41% | 1006.8 hPa | 0 mm | - | 897 W/m² | - |
* Rain latest hour (hover to see other rain measurements)
** Current wind speed in m/s (hover to see current wind gust speed)